createdAt,value
2023-01-05T00:00:25.315Z,102268.72
2023-01-05T00:05:29.463Z,102267.88
2023-01-05T00:10:52.332Z,102271.31
2023-01-05T00:16:16.343Z,102273.06
2023-01-05T00:21:40.006Z,102286.72
2023-01-05T00:26:45.008Z,102290.16
2023-01-05T00:31:49.083Z,102293.69
2023-01-05T00:36:53.240Z,102297.94
2023-01-05T00:41:58.132Z,102308.31
2023-01-05T00:47:02.761Z,102314.38
2023-01-05T00:52:08.091Z,102323.00
2023-01-05T00:57:16.682Z,102331.66
2023-01-05T01:02:21.581Z,102335.13
2023-01-05T01:07:27.428Z,102338.63
2023-01-05T01:12:32.190Z,102339.53
2023-01-05T01:17:37.184Z,102331.84
2023-01-05T01:22:41.807Z,102330.13
2023-01-05T01:27:45.894Z,102339.56
2023-01-05T01:32:50.535Z,102326.72
2023-01-05T01:37:55.098Z,102321.53
2023-01-05T01:43:00.726Z,102313.78
2023-01-05T01:48:05.929Z,102302.53
2023-01-05T01:53:16.243Z,102311.88
2023-01-05T01:58:19.955Z,102310.94
2023-01-05T02:03:23.569Z,102303.97
2023-01-05T02:08:33.614Z,102337.38
2023-01-05T02:13:41.585Z,102315.75
2023-01-05T02:18:46.321Z,102314.75
2023-01-05T02:24:02.836Z,102314.63
2023-01-05T02:29:06.618Z,102312.69
2023-01-05T02:34:35.411Z,102310.72
2023-01-05T02:39:48.507Z,102309.69
2023-01-05T02:44:53.194Z,102315.53
2023-01-05T02:50:20.733Z,102325.69
2023-01-05T02:55:37.894Z,102297.09
2023-01-05T03:01:07.434Z,102290.00
2023-01-05T03:06:25.286Z,102282.06
2023-01-05T03:12:03.681Z,102285.28
2023-01-05T03:17:08.966Z,102269.59
2023-01-05T03:22:43.820Z,102257.28
2023-01-05T03:28:09.568Z,102239.84
2023-01-05T03:33:58.395Z,102227.56
2023-01-05T03:39:07.542Z,102223.03
2023-01-05T03:44:13.283Z,102214.34
2023-01-05T03:49:18.988Z,102209.84
2023-01-05T03:54:26.397Z,102198.44
2023-01-05T03:59:31.720Z,102182.66
2023-01-05T04:04:38.045Z,102169.50
2023-01-05T04:09:46.646Z,102177.84
2023-01-05T04:14:51.981Z,102176.63
2023-01-05T04:19:58.320Z,102170.19
2023-01-05T04:25:04.779Z,102153.38
2023-01-05T04:30:10.144Z,102148.66
2023-01-05T04:35:16.147Z,102154.41
2023-01-05T04:40:22.799Z,102170.56
2023-01-05T04:45:31.247Z,102135.53
2023-01-05T04:51:05.503Z,102137.72
2023-01-05T04:56:14.082Z,102109.53
2023-01-05T05:01:22.065Z,102097.78
2023-01-05T05:06:30.724Z,102099.09
2023-01-05T05:11:38.195Z,102098.88
2023-01-05T05:16:42.922Z,102082.28
2023-01-05T05:21:48.433Z,102066.63
2023-01-05T05:26:53.838Z,102062.22
2023-01-05T05:31:58.891Z,102048.91
2023-01-05T05:37:04.675Z,102036.59
2023-01-05T05:42:09.391Z,102054.69
2023-01-05T05:47:13.965Z,102023.34
2023-01-05T05:52:19.135Z,102029.13
2023-01-05T05:57:25.094Z,101997.75
2023-01-05T06:02:30.608Z,101986.25
2023-01-05T06:07:36.166Z,101982.56
2023-01-05T06:12:40.731Z,101958.94
2023-01-05T06:17:49.877Z,101971.09
2023-01-05T06:22:56.057Z,101958.91
2023-01-05T06:28:00.952Z,101938.09
2023-01-05T06:33:09.378Z,101941.50
2023-01-05T06:38:17.398Z,101928.47
2023-01-05T06:43:22.982Z,101924.16
2023-01-05T06:48:28.243Z,101909.34
2023-01-05T06:53:33.579Z,101941.63
2023-01-05T06:58:38.857Z,101890.47
2023-01-05T07:03:43.891Z,101887.81
2023-01-05T07:08:49.121Z,101889.72
2023-01-05T07:13:54.460Z,101885.38
2023-01-05T07:18:59.701Z,101883.06
2023-01-05T07:24:06.029Z,101879.00
2023-01-05T07:29:11.406Z,101900.78
2023-01-05T07:34:16.688Z,101884.53
2023-01-05T07:39:22.105Z,101885.63
2023-01-05T07:44:27.594Z,101875.47
2023-01-05T07:49:36.995Z,101874.78
2023-01-05T07:54:41.301Z,101893.22
2023-01-05T07:59:46.210Z,101889.25
2023-01-05T08:04:52.659Z,101867.81
2023-01-05T08:10:16.037Z,101869.81
2023-01-05T08:15:20.981Z,101860.69
2023-01-05T08:20:27.715Z,101856.63
2023-01-05T08:25:34.348Z,101869.00
2023-01-05T08:30:39.933Z,101871.97
2023-01-05T08:35:46.950Z,101861.06
2023-01-05T08:40:52.919Z,101873.53
2023-01-05T08:45:57.984Z,101876.38
2023-01-05T08:51:08.717Z,101913.06
2023-01-05T08:56:14.298Z,101877.97
2023-01-05T09:01:22.402Z,101876.53
2023-01-05T09:06:26.825Z,101865.66
2023-01-05T09:11:31.418Z,101858.72
2023-01-05T09:22:02.600Z,101860.38
2023-01-05T09:27:09.866Z,101862.34
2023-01-05T09:32:14.729Z,101915.28
2023-01-05T09:37:19.391Z,101867.25
2023-01-05T09:42:28.800Z,101874.44
2023-01-05T09:47:43.378Z,101872.97
2023-01-05T09:52:47.822Z,101904.31
2023-01-05T09:58:08.893Z,101879.50
2023-01-05T10:04:01.996Z,101887.41
2023-01-05T10:08:53.261Z,101879.00
2023-01-05T10:14:09.265Z,101878.28
2023-01-05T10:19:20.026Z,101896.56
2023-01-05T10:24:44.094Z,101883.78
2023-01-05T10:29:50.705Z,101897.72
2023-01-05T10:35:00.299Z,101889.25
2023-01-05T10:40:05.569Z,101887.66
2023-01-05T10:45:17.256Z,101892.97
2023-01-05T10:50:37.513Z,101896.56
2023-01-05T10:56:06.935Z,101896.69
2023-01-05T11:01:30.908Z,101900.97
2023-01-05T11:06:34.908Z,101909.56
2023-01-05T11:11:39.955Z,101902.69
2023-01-05T11:16:53.139Z,101914.72
2023-01-05T11:22:01.876Z,101919.88
2023-01-05T11:27:26.685Z,101926.75
2023-01-05T11:32:31.588Z,101913.00
2023-01-05T11:37:35.534Z,101900.94
2023-01-05T11:42:44.862Z,101895.84
2023-01-05T11:47:50.878Z,101896.81
2023-01-05T11:52:58.480Z,101883.09
2023-01-05T11:58:24.463Z,101873.72
2023-01-05T12:04:07.194Z,101866.06
2023-01-05T12:09:36.449Z,101856.09
2023-01-05T12:15:08.435Z,101896.06
2023-01-05T12:20:22.317Z,101866.44
2023-01-05T12:25:37.244Z,101869.47
2023-01-05T12:33:19.382Z,101858.72
2023-01-05T12:36:45.103Z,101872.72
2023-01-05T12:41:52.766Z,101849.56
2023-01-05T12:47:25.077Z,101847.88
2023-01-05T12:52:43.940Z,101896.00
2023-01-05T12:57:53.942Z,101858.81
2023-01-05T13:03:15.375Z,101857.78
2023-01-05T13:08:27.539Z,101860.25
2023-01-05T13:13:31.701Z,101860.44
2023-01-05T13:18:43.342Z,101879.41
2023-01-05T13:23:58.520Z,101838.09
2023-01-05T13:29:06.117Z,101856.22
2023-01-05T13:34:16.105Z,101842.56
2023-01-05T13:39:27.693Z,101838.38
2023-01-05T13:44:50.940Z,101830.72
2023-01-05T13:50:18.227Z,101817.00
2023-01-05T13:55:26.176Z,101831.66
2023-01-05T14:00:44.479Z,101835.13
2023-01-05T14:06:02.750Z,101827.34
2023-01-05T14:11:22.042Z,101807.56
2023-01-05T14:16:46.317Z,101788.63
2023-01-05T14:21:51.250Z,101810.13
2023-01-05T14:27:23.199Z,101802.41
2023-01-05T14:32:28.219Z,101785.91
2023-01-05T14:37:53.900Z,101781.34
2023-01-05T14:43:01.218Z,101766.56
2023-01-05T14:48:26.458Z,101757.00
2023-01-05T14:53:52.989Z,101737.97
2023-01-05T14:59:01.469Z,101742.34
2023-01-05T15:04:09.827Z,101753.72
2023-01-05T15:09:24.357Z,101743.53
2023-01-05T15:14:53.988Z,101738.50
2023-01-05T15:20:15.242Z,101753.16
2023-01-05T15:25:24.790Z,101738.59
2023-01-05T15:30:48.389Z,101747.19
2023-01-05T15:35:58.406Z,101773.03
2023-01-05T15:41:14.639Z,101750.59
2023-01-05T15:46:24.611Z,101718.63
2023-01-05T15:51:32.396Z,101709.03
2023-01-05T15:56:37.181Z,101697.78
2023-01-05T16:01:42.232Z,101701.09
2023-01-05T16:06:50.147Z,101689.09
2023-01-05T16:11:58.722Z,101685.03
2023-01-05T16:17:13.482Z,101677.53
2023-01-05T16:22:20.181Z,101676.97
2023-01-05T16:27:25.306Z,101686.59
2023-01-05T16:32:36.027Z,101675.66
2023-01-05T16:37:42.587Z,101689.50
2023-01-05T16:42:49.440Z,101674.97
2023-01-05T16:47:55.199Z,101663.88
2023-01-05T16:53:05.046Z,101670.72
2023-01-05T16:58:31.317Z,101659.44
2023-01-05T17:03:36.390Z,101666.19
2023-01-05T17:08:42.351Z,101644.72
2023-01-05T17:13:51.574Z,101618.94
2023-01-05T17:18:57.560Z,101649.88
2023-01-05T17:24:05.090Z,101627.53
2023-01-05T17:29:18.815Z,101633.53
2023-01-05T17:34:24.819Z,101617.25
2023-01-05T17:44:39.840Z,101636.50
2023-01-05T17:49:45.104Z,101628.94
2023-01-05T17:54:50.568Z,101621.31
2023-01-05T17:59:55.688Z,101618.84
2023-01-05T18:04:59.784Z,101616.94
2023-01-05T18:10:04.240Z,101625.22
2023-01-05T18:15:09.673Z,101596.75
2023-01-05T18:20:17.706Z,101592.50
2023-01-05T18:25:25.138Z,101613.25
2023-01-05T18:30:30.416Z,101615.19
2023-01-05T18:35:37.257Z,101599.19
2023-01-05T18:40:47.919Z,101578.06
2023-01-05T18:45:58.571Z,101564.50
2023-01-05T18:51:02.060Z,101570.59
2023-01-05T18:56:05.937Z,101584.38
2023-01-05T19:01:15.773Z,101563.03
2023-01-05T19:06:21.326Z,101561.41
2023-01-05T19:11:26.657Z,101551.13
2023-01-05T19:16:31.692Z,101544.13
2023-01-05T19:21:36.795Z,101529.59
2023-01-05T19:26:41.364Z,101512.47
2023-01-05T19:31:46.388Z,101513.38
2023-01-05T19:36:49.964Z,101494.53
2023-01-05T19:41:54.093Z,101501.34
2023-01-05T19:46:58.678Z,101498.06
2023-01-05T19:52:03.278Z,101515.53
2023-01-05T19:57:07.838Z,101488.25
2023-01-05T20:02:11.312Z,101471.28
2023-01-05T20:07:16.039Z,101453.34
2023-01-05T20:12:20.946Z,101438.91
2023-01-05T20:17:25.667Z,101437.31
2023-01-05T20:22:30.354Z,101431.44
2023-01-05T20:27:35.724Z,101464.88
2023-01-05T20:32:40.135Z,101445.00
2023-01-05T20:37:44.688Z,101425.38
2023-01-05T20:42:48.741Z,101437.44
2023-01-05T20:47:53.389Z,101452.03
2023-01-05T20:52:59.136Z,101425.41
2023-01-05T20:58:03.690Z,101422.84
2023-01-05T21:03:08.865Z,101428.13
2023-01-05T21:08:13.136Z,101421.41
2023-01-05T21:13:30.557Z,101408.56
2023-01-05T21:18:36.984Z,101399.25
2023-01-05T21:23:42.383Z,101392.53
2023-01-05T21:28:47.910Z,101377.25
2023-01-05T21:33:53.253Z,101383.25
2023-01-05T21:39:03.838Z,101383.31
2023-01-05T21:44:11.599Z,101372.31
2023-01-05T21:49:16.380Z,101392.09
2023-01-05T21:54:39.565Z,101404.91
2023-01-05T21:59:44.949Z,101351.84
2023-01-05T22:04:49.726Z,101365.47
2023-01-05T22:09:54.374Z,101372.31
2023-01-05T22:14:59.519Z,101369.75
2023-01-05T22:20:05.152Z,101375.72
2023-01-05T22:25:11.140Z,101371.50
2023-01-05T22:30:14.717Z,101356.06
2023-01-05T22:35:20.074Z,101341.56
2023-01-05T22:40:25.907Z,101349.41
2023-01-05T22:45:30.607Z,101358.09
2023-01-05T22:50:35.348Z,101348.78
2023-01-05T22:55:39.379Z,101343.69
2023-01-05T23:00:43.486Z,101349.69
2023-01-05T23:05:48.178Z,101357.38
2023-01-05T23:10:52.700Z,101374.44
2023-01-05T23:15:57.455Z,101342.72
2023-01-05T23:21:07.580Z,101357.22
2023-01-05T23:26:15.525Z,101349.47
2023-01-05T23:31:20.393Z,101384.56
2023-01-05T23:36:26.112Z,101343.50
2023-01-05T23:41:30.783Z,101397.50
2023-01-05T23:46:35.189Z,101360.69
2023-01-05T23:51:38.685Z,101360.69
2023-01-05T23:56:43.218Z,101334.97
